Time;durP1;ratioP1;P1;durP2;ratioP2;P2;SDS_P1;SDS_P2;PMS_P1;PMS_P2;Temp;Humidity;BMP_temperature;BMP_pressure;BME280_temperature;BME280_humidity;BME280_pressure;Samples;Min_cycle;Max_cycle;Signal;HPM_P1;HPM_P2
2023/04/14 00:01:40;;;;;;;10.43;3.27;;;6.60;99.90;;;;;;4757925;30;20059;-85
2023/04/14 00:04:06;;;;;;;17.10;3.70;;;6.50;99.90;;;;;;4773452;30;20062;-86
2023/04/14 00:06:32;;;;;;;9.60;2.30;;;6.40;99.90;;;;;;4743412;30;20074;-85
2023/04/14 00:08:57;;;;;;;10.30;2.80;;;6.40;99.90;;;;;;4758897;30;20150;-84
2023/04/14 00:11:23;;;;;;;9.80;2.90;;;6.40;99.90;;;;;;4758017;30;20539;-85
2023/04/14 00:13:49;;;;;;;9.67;3.10;;;6.40;99.90;;;;;;4757734;30;20055;-85
2023/04/14 00:16:15;;;;;;;14.17;3.00;;;6.40;99.90;;;;;;4743477;30;20062;-85
2023/04/14 00:18:41;;;;;;;12.47;3.10;;;6.30;99.90;;;;;;4757946;30;20332;-85
2023/04/14 00:21:06;;;;;;;13.73;3.20;;;6.30;99.90;;;;;;4743062;30;20047;-86
2023/04/14 00:23:32;;;;;;;12.90;2.87;;;6.30;99.90;;;;;;4757327;30;20055;-85
2023/04/14 00:25:58;;;;;;;12.07;2.93;;;6.20;99.90;;;;;;4772721;30;20055;-85
2023/04/14 00:28:23;;;;;;;9.57;2.83;;;6.20;99.90;;;;;;4757552;30;20050;-85
2023/04/14 00:30:49;;;;;;;10.17;3.83;;;6.20;99.90;;;;;;4743311;30;20063;-85
2023/04/14 00:33:15;;;;;;;9.33;3.07;;;6.10;99.90;;;;;;4743010;30;20062;-85
2023/04/14 00:35:41;;;;;;;15.70;3.30;;;6.00;99.90;;;;;;4772676;30;20212;-85
2023/04/14 00:38:06;;;;;;;10.03;3.17;;;6.00;99.90;;;;;;4757762;30;20416;-85
2023/04/14 00:40:32;;;;;;;10.37;3.10;;;5.90;99.90;;;;;;4772540;30;20502;-85
2023/04/14 00:42:58;;;;;;;16.17;2.70;;;5.90;99.90;;;;;;4743132;30;20051;-85
2023/04/14 00:45:26;;;;;;;12.50;3.70;;;5.90;99.90;;;;;;4758459;30;20047;-85
2023/04/14 00:47:52;;;;;;;12.85;3.28;;;5.90;99.90;;;;;;4757867;30;20051;-84
2023/04/14 00:50:19;;;;;;;16.45;3.55;;;6.00;99.90;;;;;;4771752;30;20142;-85
2023/04/14 00:52:47;;;;;;;11.55;2.65;;;6.00;99.90;;;;;;4773050;30;20138;-85
2023/04/14 00:55:15;;;;;;;9.65;2.97;;;6.00;99.90;;;;;;4773074;30;20048;-85
2023/04/14 00:57:41;;;;;;;12.77;2.63;;;5.90;99.90;;;;;;4773104;30;20405;-85
2023/04/14 01:00:07;;;;;;;10.52;2.70;;;5.90;99.90;;;;;;4772306;30;20051;-85
2023/04/14 01:02:33;;;;;;;13.93;3.55;;;5.90;99.90;;;;;;4757740;30;20463;-85
2023/04/14 01:04:59;;;;;;;8.70;2.77;;;5.80;99.90;;;;;;4757388;30;20135;-85
2023/04/14 01:07:27;;;;;;;8.80;2.80;;;5.80;99.90;;;;;;4772096;30;20408;-85
2023/04/14 01:09:55;;;;;;;10.55;2.78;;;5.80;99.90;;;;;;4772090;30;20092;-85
2023/04/14 01:12:45;;;;;;;12.60;2.53;;;5.80;99.90;;;;;;4772228;30;20457;-85
2023/04/14 01:15:34;;;;;;;14.10;2.80;;;5.80;99.90;;;;;;4772253;30;20575;-84
2023/04/14 01:18:24;;;;;;;9.93;2.92;;;5.70;99.90;;;;;;4757738;30;20056;-85
2023/04/14 01:20:55;;;;;;;13.50;3.63;;;5.70;99.90;;;;;;4772948;30;20134;-85
2023/04/14 01:23:26;;;;;;;10.52;3.35;;;5.70;99.90;;;;;;4772990;30;20055;-86
2023/04/14 01:26:20;;;;;;;9.88;2.58;;;5.60;99.90;;;;;;4772486;30;20116;-85
2023/04/14 01:29:01;;;;;;;10.50;2.70;;;5.60;99.90;;;;;;4758204;30;20066;-85
2023/04/14 01:31:36;;;;;;;9.23;2.42;;;5.50;99.90;;;;;;4772845;30;20052;-84
2023/04/14 01:34:07;;;;;;;9.40;2.55;;;5.50;99.90;;;;;;4771927;30;20514;-85
2023/04/14 01:36:42;;;;;;;12.07;2.60;;;5.50;99.90;;;;;;4760059;30;20061;-85
2023/04/14 01:39:13;;;;;;;13.30;2.90;;;5.50;99.90;;;;;;4775389;30;20443;-85
2023/04/14 01:41:46;;;;;;;15.43;3.38;;;5.50;99.90;;;;;;4775339;30;20047;-85
2023/04/14 01:44:14;;;;;;;10.38;2.78;;;5.50;99.90;;;;;;4760692;30;20515;-85
2023/04/14 01:46:41;;;;;;;13.15;3.30;;;5.50;99.90;;;;;;4775898;30;20059;-85
2023/04/14 01:49:09;;;;;;;14.00;3.60;;;5.50;99.90;;;;;;4774626;30;20059;-85
2023/04/14 01:51:39;;;;;;;17.80;3.75;;;5.40;99.90;;;;;;4790984;30;20136;-84
2023/04/14 01:54:08;;;;;;;8.57;2.38;;;5.40;99.90;;;;;;4761099;30;20499;-85
2023/04/14 01:56:37;;;;;;;9.75;2.25;;;5.40;99.90;;;;;;4775004;30;20055;-85
2023/04/14 01:59:04;;;;;;;10.88;2.95;;;5.40;99.90;;;;;;4760887;30;20158;-85
2023/04/14 02:01:32;;;;;;;10.40;2.60;;;5.40;99.90;;;;;;4775619;30;20500;-85
2023/04/14 02:04:00;;;;;;;13.70;3.17;;;5.30;99.90;;;;;;4774900;30;20113;-85
2023/04/14 02:06:27;;;;;;;12.90;2.67;;;5.30;99.90;;;;;;4760190;30;20062;-85
2023/04/14 02:08:53;;;;;;;10.25;2.55;;;5.30;99.90;;;;;;4774831;30;20058;-85
2023/04/14 02:11:19;;;;;;;11.73;3.70;;;5.30;99.90;;;;;;4745364;30;20063;-85
2023/04/14 02:13:47;;;;;;;8.70;3.03;;;5.20;99.90;;;;;;4760554;30;20805;-84
2023/04/14 02:16:14;;;;;;;7.55;2.55;;;5.20;99.90;;;;;;4759977;30;20059;-85
2023/04/14 02:18:40;;;;;;;11.95;2.88;;;5.10;99.90;;;;;;4760784;30;20059;-84
2023/04/14 02:21:08;;;;;;;10.90;3.55;;;5.10;99.90;;;;;;4760659;30;20141;-84
2023/04/14 02:23:33;;;;;;;10.55;2.78;;;5.10;99.90;;;;;;4775330;30;20055;-85
2023/04/14 02:26:17;;;;;;;8.80;3.13;;;5.10;99.90;;;;;;4759873;30;20050;-85
2023/04/14 02:29:12;;;;;;;11.55;2.88;;;5.10;99.90;;;;;;4774204;30;20055;-85
2023/04/14 02:31:44;;;;;;;8.70;2.42;;;5.10;99.90;;;;;;4774721;30;20055;-85
2023/04/14 02:34:13;;;;;;;9.05;2.40;;;5.10;99.90;;;;;;4774695;30;20405;-85
2023/04/14 02:36:45;;;;;;;8.82;2.40;;;5.10;99.90;;;;;;4774545;30;20059;-85
2023/04/14 02:39:19;;;;;;;13.30;3.30;;;5.10;99.90;;;;;;4759893;30;20047;-85
2023/04/14 02:41:47;;;;;;;8.52;2.95;;;5.00;99.90;;;;;;4774630;30;20058;-85
2023/04/14 02:44:24;;;;;;;8.68;2.78;;;5.00;99.90;;;;;;4774289;30;20166;-85
2023/04/14 02:47:11;;;;;;;9.50;2.72;;;5.00;99.90;;;;;;4758914;30;20048;-85
2023/04/14 02:49:41;;;;;;;10.90;2.70;;;5.00;99.90;;;;;;4774019;30;20062;-85
2023/04/14 02:52:16;;;;;;;8.73;3.33;;;5.00;99.90;;;;;;4758935;30;20170;-85
2023/04/14 02:54:43;;;;;;;9.85;3.25;;;5.00;99.90;;;;;;4744478;30;20476;-86
2023/04/14 02:57:09;;;;;;;11.98;2.75;;;5.00;99.90;;;;;;4774816;30;20485;-86
2023/04/14 02:59:38;;;;;;;8.88;2.70;;;5.00;99.90;;;;;;4760068;30;20232;-86
2023/04/14 03:02:04;;;;;;;8.93;2.80;;;5.10;99.90;;;;;;4774734;30;20051;-86
2023/04/14 03:04:33;;;;;;;8.95;2.50;;;5.10;99.90;;;;;;4773840;30;20051;-86
2023/04/14 03:07:04;;;;;;;9.88;2.80;;;5.00;99.90;;;;;;4758935;30;20090;-86
2023/04/14 03:09:31;;;;;;;11.98;2.75;;;5.00;99.90;;;;;;4774064;30;20051;-86
2023/04/14 03:11:57;;;;;;;9.57;3.08;;;5.00;99.90;;;;;;4744409;30;20519;-86
2023/04/14 03:14:24;;;;;;;10.27;2.30;;;5.00;99.90;;;;;;4758986;30;20073;-86
2023/04/14 03:16:52;;;;;;;12.27;3.05;;;5.10;99.90;;;;;;4773684;30;20142;-86
2023/04/14 03:19:22;;;;;;;10.05;2.78;;;5.10;99.90;;;;;;4773652;30;20059;-87
2023/04/14 03:21:54;;;;;;;11.23;2.70;;;5.00;99.90;;;;;;4758854;30;20063;-86
2023/04/14 03:24:23;;;;;;;10.80;2.60;;;5.10;99.90;;;;;;4773436;30;20048;-86
2023/04/14 03:27:21;;;;;;;7.78;2.50;;;5.10;99.90;;;;;;4758946;30;20089;-86
2023/04/14 03:29:51;;;;;;;9.63;2.95;;;5.10;99.90;;;;;;4772766;30;20066;-86
2023/04/14 03:32:20;;;;;;;10.88;2.88;;;5.10;99.90;;;;;;4758935;30;20162;-86
2023/04/14 03:34:50;;;;;;;13.07;3.85;;;5.10;99.90;;;;;;4773332;30;20055;-86
2023/04/14 03:37:19;;;;;;;9.38;2.42;;;5.10;99.90;;;;;;4774065;30;20066;-86
2023/04/14 03:39:49;;;;;;;9.43;2.40;;;5.10;99.90;;;;;;4772972;30;20055;-86
2023/04/14 03:42:18;;;;;;;8.65;3.13;;;5.10;99.90;;;;;;4758316;30;20062;-86
2023/04/14 03:44:50;;;;;;;8.43;2.30;;;5.10;99.90;;;;;;4758734;30;20086;-86
2023/04/14 03:47:17;;;;;;;11.65;3.70;;;5.00;99.90;;;;;;4759115;30;20095;-86
2023/04/14 03:49:48;;;;;;;9.13;2.50;;;5.00;99.90;;;;;;4772881;30;20417;-86
2023/04/14 03:52:19;;;;;;;11.90;3.25;;;5.00;99.90;;;;;;4758294;30;20060;-86
2023/04/14 03:54:47;;;;;;;7.20;2.38;;;5.00;99.90;;;;;;4773283;30;20161;-86
2023/04/14 03:57:16;;;;;;;10.15;2.97;;;5.00;99.90;;;;;;4773788;30;20080;-86
2023/04/14 03:59:45;;;;;;;9.95;2.92;;;5.00;99.90;;;;;;4758338;30;20134;-86
2023/04/14 04:02:11;;;;;;;10.73;3.28;;;5.00;99.90;;;;;;4773722;30;20152;-86
2023/04/14 04:04:38;;;;;;;13.27;2.80;;;5.00;99.90;;;;;;4758253;30;20445;-86
2023/04/14 04:07:09;;;;;;;8.35;2.15;;;5.00;99.90;;;;;;4772603;30;20405;-86
2023/04/14 04:09:36;;;;;;;9.88;2.85;;;4.90;99.90;;;;;;4758190;30;20051;-86
2023/04/14 04:12:03;;;;;;;10.70;3.33;;;4.90;99.90;;;;;;4758323;30;20051;-85
2023/04/14 04:14:31;;;;;;;7.45;2.17;;;4.90;99.90;;;;;;4788751;29;20399;-86
2023/04/14 04:17:01;;;;;;;8.27;2.53;;;4.90;99.90;;;;;;4773496;30;20177;-86
2023/04/14 04:19:26;;;;;;;13.07;3.15;;;4.80;99.90;;;;;;4757885;30;20480;-86
2023/04/14 04:21:56;;;;;;;11.17;2.70;;;4.80;99.90;;;;;;4743418;30;20057;-86
2023/04/14 04:24:24;;;;;;;8.70;2.20;;;4.80;99.90;;;;;;4772656;30;20299;-86
2023/04/14 04:26:51;;;;;;;9.23;2.40;;;4.70;99.90;;;;;;4757765;30;20133;-86
2023/04/14 04:29:18;;;;;;;9.20;2.95;;;4.70;99.90;;;;;;4758774;30;20043;-86
2023/04/14 04:31:44;;;;;;;13.68;3.72;;;4.70;99.90;;;;;;4772654;30;20404;-86
2023/04/14 04:34:10;;;;;;;10.68;3.58;;;4.70;99.90;;;;;;4758166;30;20054;-86
2023/04/14 04:36:37;;;;;;;11.52;2.75;;;4.70;99.90;;;;;;4757954;30;20094;-87
2023/04/14 04:39:03;;;;;;;10.15;2.90;;;4.70;99.90;;;;;;4757807;30;20136;-86
2023/04/14 04:41:29;;;;;;;12.00;3.27;;;4.60;99.90;;;;;;4772565;30;20136;-87
2023/04/14 04:43:55;;;;;;;15.30;3.08;;;4.60;99.90;;;;;;4772460;30;20123;-86
2023/04/14 04:46:53;;;;;;;10.80;2.90;;;4.70;99.90;;;;;;4757575;30;20055;-86
2023/04/14 04:49:19;;;;;;;10.43;2.80;;;4.70;99.90;;;;;;4772686;30;20059;-86
2023/04/14 04:51:45;;;;;;;6.97;2.70;;;4.70;99.90;;;;;;4771762;30;20497;-86
2023/04/14 04:54:11;;;;;;;6.22;2.60;;;4.70;99.90;;;;;;4772425;30;20051;-86
2023/04/14 04:56:37;;;;;;;10.60;2.80;;;4.70;99.90;;;;;;4757573;30;20043;-87
2023/04/14 04:59:03;;;;;;;11.77;3.37;;;4.70;99.90;;;;;;4758292;30;20289;-86
2023/04/14 05:01:29;;;;;;;9.50;2.60;;;4.70;99.90;;;;;;4772349;30;20575;-87
2023/04/14 05:03:55;;;;;;;9.02;2.75;;;4.80;99.90;;;;;;4757567;30;20176;-87
2023/04/14 05:06:21;;;;;;;8.68;2.70;;;4.80;99.90;;;;;;4757620;30;20083;-87
2023/04/14 05:08:49;;;;;;;7.40;2.27;;;4.80;99.90;;;;;;4757332;30;20052;-86
2023/04/14 05:11:15;;;;;;;8.38;2.60;;;4.80;99.90;;;;;;4775106;30;20793;-86
2023/04/14 05:13:41;;;;;;;12.20;2.90;;;4.80;99.90;;;;;;4761075;30;20055;-88
2023/04/14 05:16:12;;;;;;;7.50;2.27;;;4.90;99.90;;;;;;4760952;30;20073;-86
2023/04/14 05:18:39;;;;;;;9.15;2.63;;;4.90;99.90;;;;;;4775693;30;20063;-86
2023/04/14 05:21:07;;;;;;;10.75;3.33;;;4.90;99.90;;;;;;4791476;30;20138;-87
2023/04/14 05:23:35;;;;;;;9.38;2.88;;;5.00;99.90;;;;;;4775604;30;20055;-86
2023/04/14 05:26:01;;;;;;;9.68;2.83;;;5.00;99.90;;;;;;4760933;30;20400;-87
2023/04/14 05:28:27;;;;;;;10.20;2.45;;;5.00;99.90;;;;;;4775462;30;20043;-87
2023/04/14 05:30:53;;;;;;;9.77;2.90;;;5.10;99.90;;;;;;4761559;30;20058;-87
2023/04/14 05:33:19;;;;;;;8.37;2.80;;;5.10;99.90;;;;;;4775527;30;20774;-86
2023/04/14 05:35:45;;;;;;;10.13;2.53;;;5.10;99.90;;;;;;4760900;30;20074;-87
2023/04/14 05:38:14;;;;;;;9.75;3.28;;;5.10;99.90;;;;;;4776096;30;20439;-86
2023/04/14 05:40:40;;;;;;;8.95;2.97;;;5.10;99.90;;;;;;4746084;30;20059;-86
2023/04/14 05:43:06;;;;;;;7.27;2.57;;;5.10;99.90;;;;;;4760499;30;20051;-86
2023/04/14 05:45:32;;;;;;;9.50;2.80;;;5.10;99.90;;;;;;4745827;30;20055;-86
2023/04/14 05:47:58;;;;;;;12.87;3.33;;;5.20;99.90;;;;;;4775791;30;20101;-86
2023/04/14 05:50:23;;;;;;;12.40;2.97;;;5.20;99.90;;;;;;4759976;29;20397;-87
2023/04/14 05:52:50;;;;;;;11.73;3.63;;;5.20;99.90;;;;;;4760159;30;20067;-87
2023/04/14 05:55:16;;;;;;;9.45;2.85;;;5.20;99.90;;;;;;4775185;30;20055;-87
2023/04/14 05:57:42;;;;;;;14.13;3.17;;;5.30;99.90;;;;;;4760016;30;20137;-87
2023/04/14 06:00:11;;;;;;;9.18;2.92;;;5.30;99.90;;;;;;4760355;30;20059;-87
2023/04/14 06:02:41;;;;;;;5.07;2.60;;;5.40;99.90;;;;;;4775190;30;20051;-87
2023/04/14 06:05:07;;;;;;;8.93;2.97;;;5.40;99.90;;;;;;4774997;30;20109;-87
2023/04/14 06:07:33;;;;;;;9.20;3.10;;;5.50;99.90;;;;;;4775326;30;20523;-87
2023/04/14 06:10:00;;;;;;;8.27;2.80;;;5.60;99.90;;;;;;4774849;30;20540;-87
2023/04/14 06:12:25;;;;;;;11.32;2.60;;;5.90;99.90;;;;;;4760060;30;20063;-87
2023/04/14 06:14:51;;;;;;;8.33;2.57;;;7.10;99.90;;;;;;4774558;30;20055;-87
2023/04/14 06:17:17;;;;;;;9.97;3.27;;;8.50;99.90;;;;;;4760087;30;20051;-87
2023/04/14 06:19:43;;;;;;;10.97;3.13;;;9.90;99.90;;;;;;4774859;30;20504;-88
2023/04/14 06:22:08;;;;;;;8.60;3.27;;;11.30;99.90;;;;;;4759385;30;20047;-87
2023/04/14 06:24:34;;;;;;;6.43;2.53;;;12.40;99.90;;;;;;4759928;30;20488;-88
2023/04/14 06:27:02;;;;;;;7.87;3.07;;;13.60;99.90;;;;;;4745029;30;20051;-87
2023/04/14 06:29:29;;;;;;;9.63;2.90;;;14.40;99.90;;;;;;4775334;30;20431;-88
2023/04/14 06:31:56;;;;;;;7.63;2.67;;;15.20;99.90;;;;;;4774388;30;20288;-88
2023/04/14 06:34:22;;;;;;;9.17;3.27;;;16.10;99.90;;;;;;4760621;30;20289;-88
2023/04/14 06:36:48;;;;;;;9.17;3.50;;;16.70;99.90;;;;;;4759739;30;20354;-88
2023/04/14 06:39:14;;;;;;;8.47;3.17;;;17.30;99.90;;;;;;4774707;30;20639;-88
2023/04/14 06:41:40;;;;;;;6.80;2.63;;;17.70;99.90;;;;;;4759539;30;20099;-88
2023/04/14 06:44:06;;;;;;;10.27;3.97;;;17.90;94.40;;;;;;4774413;30;20063;-88
2023/04/14 06:46:34;;;;;;;9.80;2.83;;;18.10;89.90;;;;;;4774154;30;20055;-89
2023/04/14 06:49:00;;;;;;;7.33;3.20;;;18.40;91.30;;;;;;4759769;30;20104;-88
2023/04/14 06:51:26;;;;;;;7.93;3.00;;;18.80;84.10;;;;;;4774214;30;20067;-88
2023/04/14 06:53:52;;;;;;;8.73;3.43;;;19.10;53.50;;;;;;4759622;30;20047;-88
2023/04/14 06:56:18;;;;;;;6.83;3.10;;;19.60;51.80;;;;;;4759359;30;20517;-88
2023/04/14 06:58:43;;;;;;;8.50;3.40;;;19.90;50.60;;;;;;4774621;30;20051;-88
2023/04/14 07:01:09;;;;;;;12.47;3.67;;;20.20;49.80;;;;;;4790456;30;20093;-88
2023/04/14 07:03:36;;;;;;;9.27;2.97;;;20.30;60.70;;;;;;4759311;30;20055;-88
2023/04/14 07:06:07;;;;;;;8.20;2.93;;;20.70;59.20;;;;;;4759129;30;20058;-88
2023/04/14 07:08:33;;;;;;;7.60;2.97;;;21.20;46.00;;;;;;4774448;30;20051;-88
2023/04/14 07:11:07;;;;;;;9.20;3.50;;;21.20;56.00;;;;;;4773968;30;20108;-88
2023/04/14 07:13:34;;;;;;;7.77;2.80;;;21.50;46.10;;;;;;4773643;30;20077;-88
2023/04/14 07:16:01;;;;;;;10.83;3.73;;;22.00;44.90;;;;;;4773554;30;20504;-88
2023/04/14 07:18:27;;;;;;;8.87;3.07;;;22.00;44.10;;;;;;4773844;30;20126;-88
2023/04/14 07:20:53;;;;;;;9.50;3.03;;;22.30;44.50;;;;;;4773172;30;20047;-88
2023/04/14 07:23:20;;;;;;;8.43;2.63;;;22.50;52.20;;;;;;4758543;30;20135;-88
2023/04/14 07:25:53;;;;;;;7.03;2.87;;;22.50;51.90;;;;;;4759149;30;20066;-87
2023/04/14 07:28:20;;;;;;;7.80;2.50;;;22.40;50.10;;;;;;4789673;30;20055;-88
2023/04/14 07:30:47;;;;;;;6.93;2.73;;;22.40;51.50;;;;;;4789434;30;20055;-88
2023/04/14 07:33:17;;;;;;;10.17;2.90;;;22.60;50.80;;;;;;4773188;30;20051;-88
2023/04/14 07:35:44;;;;;;;7.57;2.80;;;22.90;43.10;;;;;;4759435;30;20106;-88
2023/04/14 07:38:09;;;;;;;11.13;2.83;;;23.00;42.40;;;;;;4773386;30;20063;-87
2023/04/14 07:40:35;;;;;;;9.10;3.20;;;23.30;48.40;;;;;;4758406;30;20068;-87
2023/04/14 07:43:01;;;;;;;9.13;2.30;;;23.70;47.40;;;;;;4758776;30;20047;-87
2023/04/14 07:45:26;;;;;;;8.43;2.57;;;24.00;47.10;;;;;;4758598;30;20166;-87
2023/04/14 07:47:52;;;;;;;6.67;2.27;;;24.00;46.70;;;;;;4773124;30;20489;-87
2023/04/14 07:50:18;;;;;;;5.87;2.40;;;24.00;45.90;;;;;;4773251;30;20052;-87
2023/04/14 07:52:44;;;;;;;7.43;2.23;;;24.00;45.50;;;;;;4789646;30;20098;-87
2023/04/14 07:55:09;;;;;;;7.90;2.50;;;23.90;43.90;;;;;;4759104;30;20055;-87
2023/04/14 07:57:35;;;;;;;6.70;2.53;;;22.80;44.50;;;;;;4772850;30;20071;-87
2023/04/14 08:00:01;;;;;;;6.27;2.63;;;21.60;45.70;;;;;;4772937;30;20112;-87
2023/04/14 08:02:27;;;;;;;6.13;2.20;;;20.50;47.40;;;;;;4758239;30;20111;-86
2023/04/14 08:04:52;;;;;;;7.00;2.10;;;19.70;48.20;;;;;;4758276;30;20055;-86
2023/04/14 08:07:18;;;;;;;6.90;2.67;;;18.90;49.80;;;;;;4772764;30;20064;-86
2023/04/14 08:09:44;;;;;;;9.23;2.47;;;18.40;50.50;;;;;;4772908;30;20054;-86
2023/04/14 08:12:10;;;;;;;8.13;2.17;;;17.80;51.40;;;;;;4758241;30;20540;-86
2023/04/14 08:14:36;;;;;;;10.20;2.97;;;17.40;52.30;;;;;;4772833;30;20058;-86
2023/04/14 08:17:02;;;;;;;7.90;3.00;;;17.00;53.50;;;;;;4772936;30;20070;-86
2023/04/14 08:19:29;;;;;;;10.07;2.63;;;16.80;53.90;;;;;;4772692;30;20051;-87
2023/04/14 08:21:55;;;;;;;10.37;2.53;;;16.70;54.90;;;;;;4772761;30;20086;-87
2023/04/14 08:24:21;;;;;;;8.67;2.93;;;16.50;55.40;;;;;;4743140;30;20065;-87
2023/04/14 08:26:47;;;;;;;6.93;2.60;;;16.30;55.50;;;;;;4789023;29;20122;-87
2023/04/14 08:29:13;;;;;;;10.43;2.80;;;16.10;56.00;;;;;;4757860;30;20117;-87
2023/04/14 08:31:38;;;;;;;9.03;3.07;;;15.90;56.60;;;;;;4788534;30;20058;-87
2023/04/14 08:34:04;;;;;;;7.60;2.70;;;15.70;57.10;;;;;;4773385;30;20059;-87
2023/04/14 08:36:30;;;;;;;8.33;2.30;;;15.60;58.50;;;;;;4788484;29;20136;-87
2023/04/14 08:38:58;;;;;;;8.57;3.07;;;15.50;59.50;;;;;;4757866;30;20051;-86
2023/04/14 08:41:25;;;;;;;11.07;3.13;;;15.50;59.90;;;;;;4788908;30;20058;-86
2023/04/14 08:43:51;;;;;;;10.47;2.77;;;15.40;60.50;;;;;;4773362;30;20162;-86
2023/04/14 08:46:18;;;;;;;8.33;2.70;;;15.40;61.30;;;;;;4772313;30;20536;-86
2023/04/14 08:48:48;;;;;;;8.07;2.53;;;15.30;62.90;;;;;;4772270;30;20122;-86
2023/04/14 08:51:30;;;;;;;7.57;2.87;;;15.30;62.40;;;;;;4788180;30;20062;-86
2023/04/14 08:53:56;;;;;;;7.30;2.47;;;15.00;62.30;;;;;;4772797;30;20145;-86
2023/04/14 08:56:26;;;;;;;11.87;2.70;;;14.70;62.50;;;;;;4788856;30;20449;-86
2023/04/14 08:58:52;;;;;;;8.23;2.73;;;14.50;63.60;;;;;;4773191;30;20055;-85
2023/04/14 09:01:19;;;;;;;12.67;2.60;;;14.40;65.20;;;;;;4772602;30;20051;-86
2023/04/14 09:03:46;;;;;;;9.60;2.80;;;14.30;66.00;;;;;;4788545;30;20055;-86
2023/04/14 09:06:13;;;;;;;8.43;2.30;;;14.20;66.80;;;;;;4772067;30;20087;-86
2023/04/14 09:08:39;;;;;;;10.63;2.50;;;14.20;67.20;;;;;;4772031;30;20073;-86
2023/04/14 09:11:04;;;;;;;9.47;2.60;;;14.10;68.00;;;;;;4742908;30;20059;-86
2023/04/14 09:13:30;;;;;;;10.77;3.10;;;14.10;68.50;;;;;;4758075;30;20063;-86
2023/04/14 09:15:58;;;;;;;6.27;2.47;;;14.00;69.50;;;;;;4742898;30;20067;-86
2023/04/14 09:18:24;;;;;;;8.43;2.90;;;14.00;71.40;;;;;;4757546;30;20105;-86
2023/04/14 09:20:51;;;;;;;7.63;2.77;;;13.80;72.00;;;;;;4772485;30;20062;-86
2023/04/14 09:23:18;;;;;;;10.30;2.40;;;13.80;73.90;;;;;;4757514;30;20055;-86
2023/04/14 09:25:44;;;;;;;7.70;2.10;;;13.80;72.70;;;;;;4771915;30;20044;-86
2023/04/14 09:28:10;;;;;;;9.63;2.30;;;13.80;74.80;;;;;;4772592;30;20108;-86
2023/04/14 09:30:36;;;;;;;7.03;2.10;;;13.80;75.30;;;;;;4772080;30;20063;-86
2023/04/14 09:33:21;;;;;;;7.50;2.00;;;13.90;74.80;;;;;;4757353;30;20080;-86
2023/04/14 09:35:50;;;;;;;10.10;2.30;;;14.00;73.50;;;;;;4788754;30;20394;-85
2023/04/14 09:38:34;;;;;;;7.03;2.33;;;14.00;73.90;;;;;;4771999;30;20055;-86
2023/04/14 09:41:00;;;;;;;7.73;2.13;;;14.00;72.10;;;;;;4787960;30;20426;-86
2023/04/14 09:43:28;;;;;;;7.43;2.10;;;14.00;70.60;;;;;;4771939;30;20059;-85
2023/04/14 09:45:54;;;;;;;8.30;2.13;;;14.00;72.00;;;;;;4757997;30;20051;-86
2023/04/14 09:48:20;;;;;;;5.90;1.93;;;13.90;70.60;;;;;;4771741;30;20366;-85
2023/04/14 09:51:08;;;;;;;6.87;1.90;;;13.90;70.50;;;;;;4772429;30;20063;-85
2023/04/14 09:53:36;;;;;;;8.17;2.00;;;13.90;71.60;;;;;;4772189;30;20305;-85
2023/04/14 09:56:08;;;;;;;8.37;2.10;;;13.80;72.10;;;;;;4772449;30;20354;-86
2023/04/14 09:58:42;;;;;;;7.40;2.53;;;13.80;72.30;;;;;;4774881;30;20066;-86
2023/04/14 10:01:16;;;;;;;7.55;2.13;;;13.80;71.90;;;;;;4775849;30;20293;-86
2023/04/14 10:03:46;;;;;;;7.47;1.90;;;13.90;73.90;;;;;;4775026;30;20058;-86
2023/04/14 10:06:13;;;;;;;8.20;2.57;;;13.90;71.10;;;;;;4775739;30;20102;-84
2023/04/14 10:08:40;;;;;;;5.90;1.80;;;13.80;70.70;;;;;;4775433;30;20051;-84
2023/04/14 10:11:20;;;;;;;6.87;1.90;;;13.70;69.50;;;;;;4774907;30;20782;-84
2023/04/14 10:13:52;;;;;;;10.40;2.67;;;13.80;72.10;;;;;;4760902;30;20316;-84
2023/04/14 10:16:18;;;;;;;6.67;1.97;;;13.80;72.10;;;;;;4774562;30;20297;-85
2023/04/14 10:18:44;;;;;;;7.10;1.67;;;14.00;72.60;;;;;;4775081;30;20404;-84
2023/04/14 10:21:10;;;;;;;7.63;2.10;;;13.90;70.90;;;;;;4774755;30;20051;-84
2023/04/14 10:23:38;;;;;;;5.20;1.50;;;13.90;70.20;;;;;;4774715;30;20500;-85
2023/04/14 10:26:06;;;;;;;7.03;2.40;;;13.80;68.80;;;;;;4774693;30;20289;-84
2023/04/14 10:28:36;;;;;;;7.43;2.30;;;13.80;66.70;;;;;;4759601;30;20316;-84
2023/04/14 10:31:04;;;;;;;6.97;2.07;;;13.70;68.00;;;;;;4745021;30;20297;-85
2023/04/14 10:33:29;;;;;;;8.43;2.23;;;13.80;69.30;;;;;;4790380;30;20296;-85
2023/04/14 10:35:59;;;;;;;7.23;1.63;;;13.80;69.20;;;;;;4774754;30;20296;-84
2023/04/14 10:38:41;;;;;;;7.13;1.73;;;13.90;68.80;;;;;;4775229;30;20055;-85
2023/04/14 10:41:08;;;;;;;7.97;2.13;;;14.00;67.50;;;;;;4774469;30;20695;-85
2023/04/14 10:43:35;;;;;;;6.93;2.00;;;13.90;66.30;;;;;;4760349;30;20628;-84
2023/04/14 10:46:02;;;;;;;5.23;1.70;;;14.00;66.40;;;;;;4774345;30;20308;-84
2023/04/14 10:48:38;;;;;;;9.80;1.83;;;14.00;66.40;;;;;;4759274;30;20635;-85
2023/04/14 10:51:06;;;;;;;5.57;2.03;;;14.00;66.00;;;;;;4774704;30;20297;-84
2023/04/14 10:53:44;;;;;;;5.37;1.83;;;14.00;66.50;;;;;;4759151;30;20518;-85
2023/04/14 10:56:10;;;;;;;6.50;2.33;;;13.90;65.80;;;;;;4774169;30;20297;-85
2023/04/14 10:58:37;;;;;;;6.03;1.90;;;14.00;68.20;;;;;;4789912;30;20331;-84
2023/04/14 11:01:25;;;;;;;7.27;1.77;;;14.10;67.40;;;;;;4789894;30;20301;-85
2023/04/14 11:03:55;;;;;;;4.87;1.60;;;14.20;65.20;;;;;;4773820;30;20307;-85
2023/04/14 11:06:46;;;;;;;7.13;1.83;;;14.40;66.10;;;;;;4759264;30;20335;-85
2023/04/14 11:09:30;;;;;;;5.83;1.70;;;14.40;62.40;;;;;;4773353;30;20880;-85
2023/04/14 11:12:00;;;;;;;7.73;2.13;;;14.30;60.30;;;;;;4759872;30;20345;-85
2023/04/14 11:14:29;;;;;;;8.10;1.97;;;14.20;64.10;;;;;;4774710;30;20304;-85
2023/04/14 11:17:07;;;;;;;9.03;2.53;;;14.20;64.50;;;;;;4759615;30;20293;-85
2023/04/14 11:19:33;;;;;;;8.00;1.80;;;14.20;64.50;;;;;;4759758;30;20377;-85
2023/04/14 11:21:59;;;;;;;5.67;1.87;;;14.20;64.10;;;;;;4789864;30;20705;-85
2023/04/14 11:24:25;;;;;;;5.93;1.50;;;14.20;63.70;;;;;;4773946;30;20557;-85
2023/04/14 11:26:54;;;;;;;5.53;2.00;;;14.20;64.20;;;;;;4774372;30;20063;-85
2023/04/14 11:29:21;;;;;;;6.07;2.00;;;14.30;64.20;;;;;;4773498;30;20387;-84
2023/04/14 11:32:02;;;;;;;6.30;1.60;;;14.30;63.50;;;;;;4774084;30;20288;-84
2023/04/14 11:34:28;;;;;;;5.93;1.67;;;14.20;60.30;;;;;;4773526;30;20781;-84
2023/04/14 11:36:55;;;;;;;7.20;2.17;;;14.20;60.80;;;;;;4773420;30;20349;-84
2023/04/14 11:39:22;;;;;;;5.27;1.70;;;14.20;60.90;;;;;;4773471;30;20047;-84
2023/04/14 11:41:49;;;;;;;5.00;1.50;;;14.30;62.50;;;;;;4758707;30;20330;-84
2023/04/14 11:44:18;;;;;;;8.40;2.17;;;14.30;61.70;;;;;;4773282;30;20289;-84
2023/04/14 11:46:45;;;;;;;5.13;1.83;;;14.20;62.00;;;;;;4759307;30;20300;-85
2023/04/14 11:49:10;;;;;;;8.17;2.07;;;14.10;62.50;;;;;;4773267;30;20297;-85
2023/04/14 11:51:37;;;;;;;6.53;2.00;;;14.00;62.30;;;;;;4772644;30;20308;-84
2023/04/14 11:54:04;;;;;;;8.20;2.00;;;14.00;63.00;;;;;;4758416;30;20056;-85
2023/04/14 11:56:30;;;;;;;9.70;1.87;;;14.00;61.90;;;;;;4758246;30;20300;-85
2023/04/14 11:59:05;;;;;;;8.03;2.50;;;14.00;62.50;;;;;;4773412;30;20378;-85
2023/04/14 12:01:31;;;;;;;8.52;2.10;;;14.00;61.70;;;;;;4758058;30;20309;-85
2023/04/14 12:03:58;;;;;;;6.60;2.10;;;13.90;62.00;;;;;;4772995;30;20055;-85
2023/04/14 12:06:26;;;;;;;5.90;2.10;;;13.90;62.50;;;;;;4758405;30;20305;-85
2023/04/14 12:08:55;;;;;;;7.40;2.40;;;13.90;62.90;;;;;;4772758;30;20316;-85
2023/04/14 12:11:21;;;;;;;7.10;2.10;;;13.90;62.70;;;;;;4758349;30;20321;-84
2023/04/14 12:13:49;;;;;;;5.90;2.27;;;13.70;61.40;;;;;;4773305;30;20300;-85
2023/04/14 12:16:15;;;;;;;6.97;1.70;;;13.70;61.70;;;;;;4772656;30;20054;-85
2023/04/14 12:18:42;;;;;;;7.37;2.07;;;13.60;61.80;;;;;;4758151;30;20297;-85
2023/04/14 12:21:08;;;;;;;5.10;1.63;;;13.70;61.50;;;;;;4772140;30;20769;-85
2023/04/14 12:23:38;;;;;;;5.17;1.73;;;13.70;61.30;;;;;;4772698;30;20292;-85
2023/04/14 12:26:11;;;;;;;6.07;1.67;;;13.60;61.20;;;;;;4772732;30;20062;-85
2023/04/14 12:28:40;;;;;;;6.57;2.33;;;13.60;61.10;;;;;;4773222;30;20370;-86
2023/04/14 12:31:06;;;;;;;6.20;1.80;;;13.60;61.60;;;;;;4758571;30;20442;-86
2023/04/14 12:33:32;;;;;;;6.43;1.97;;;13.50;61.40;;;;;;4788486;30;20285;-85
2023/04/14 12:36:05;;;;;;;6.57;1.80;;;13.50;61.50;;;;;;4757993;30;20339;-85
2023/04/14 12:38:32;;;;;;;8.77;2.47;;;13.50;60.50;;;;;;4758528;30;20300;-86
2023/04/14 12:40:58;;;;;;;3.70;1.33;;;13.60;62.00;;;;;;4772765;30;20638;-85
2023/04/14 12:43:30;;;;;;;5.73;1.97;;;13.60;61.40;;;;;;4772782;30;20301;-86
2023/04/14 12:45:57;;;;;;;8.43;1.60;;;13.60;61.80;;;;;;4757710;30;20313;-85
2023/04/14 12:48:47;;;;;;;7.23;2.13;;;13.70;62.70;;;;;;4757569;30;20317;-85
2023/04/14 12:51:17;;;;;;;7.23;2.30;;;13.80;62.80;;;;;;4772537;30;20354;-85
2023/04/14 12:53:45;;;;;;;7.97;2.33;;;13.80;63.10;;;;;;4773067;30;20285;-86
2023/04/14 12:56:13;;;;;;;6.93;2.00;;;13.80;62.70;;;;;;4757921;30;20301;-85